Time;durP1;ratioP1;P1;durP2;ratioP2;P2;SDS_P1;SDS_P2;PMS_P1;PMS_P2;Temp;Humidity;BMP_temperature;BMP_pressure;BME280_temperature;BME280_humidity;BME280_pressure;Samples;Min_cycle;Max_cycle;Signal;HPM_P1;HPM_P2
2023/01/11 00:01:15;;;;;;;2.75;1.75;;;;;;;;;;5061662;28;20475;-59
2023/01/11 00:03:40;;;;;;;2.42;1.55;;;;;;;;;;5065952;28;20509;-60
2023/01/11 00:06:07;;;;;;;3.47;1.67;;;;;;;;;;5059129;28;20054;-60
2023/01/11 00:08:32;;;;;;;6.78;1.80;;;;;;;;;;5060364;28;20537;-60
2023/01/11 00:10:57;;;;;;;3.95;2.00;;;;;;;;;;5064225;28;20565;-60
2023/01/11 00:13:22;;;;;;;4.00;1.83;;;;;;;;;;5066007;28;20031;-59
2023/01/11 00:15:48;;;;;;;5.45;1.95;;;;;;;;;;5065545;28;20559;-59
2023/01/11 00:18:13;;;;;;;1.88;1.60;;;;;;;;;;5062654;28;20391;-59
2023/01/11 00:20:38;;;;;;;5.13;2.33;;;;;;;;;;5064103;28;20534;-59
2023/01/11 00:23:04;;;;;;;2.50;1.75;;;;;;;;;;5061482;28;20024;-60
2023/01/11 00:25:29;;;;;;;4.10;1.40;;;;;;;;;;5065722;28;20354;-59
2023/01/11 00:27:54;;;;;;;3.92;2.03;;;;;;;;;;5065385;28;20502;-60
2023/01/11 00:30:19;;;;;;;6.50;1.73;;;;;;;;;;5065301;28;20313;-59
2023/01/11 00:32:45;;;;;;;4.75;2.20;;;;;;;;;;5063633;28;20149;-60
2023/01/11 00:35:10;;;;;;;4.63;1.83;;;;;;;;;;5080540;28;20032;-60
2023/01/11 00:37:35;;;;;;;4.07;2.08;;;;;;;;;;5065875;28;20502;-59
2023/01/11 00:40:00;;;;;;;6.60;2.30;;;;;;;;;;5064253;28;20044;-59
2023/01/11 00:47:56;;;;;;;5.53;2.22;;;;;;;;;;5060658;28;20078;-59
2023/01/11 00:50:25;;;;;;;3.83;2.00;;;;;;;;;;5065035;28;20089;-60
2023/01/11 00:52:51;;;;;;;3.60;2.20;;;;;;;;;;5065539;28;20636;-60
2023/01/11 00:55:16;;;;;;;6.35;2.10;;;;;;;;;;5065040;28;20111;-60
2023/01/11 00:57:41;;;;;;;6.10;2.70;;;;;;;;;;5064072;28;20488;-60
2023/01/11 01:00:07;;;;;;;4.32;2.30;;;;;;;;;;5064384;28;20044;-60
2023/01/11 01:02:32;;;;;;;5.80;2.80;;;;;;;;;;5062152;28;20036;-60
2023/01/11 01:04:58;;;;;;;4.65;2.10;;;;;;;;;;5063380;28;20032;-59
2023/01/11 01:07:23;;;;;;;6.03;2.40;;;;;;;;;;5064968;28;20124;-59
2023/01/11 01:09:48;;;;;;;5.80;2.60;;;;;;;;;;5064551;28;20439;-59
2023/01/11 01:14:24;;;;;;;6.85;2.60;;;;;;;;;;5060479;28;20028;-59
2023/01/11 01:14:59;;;;;;;3.58;2.25;;;;;;;;;;5058457;28;20352;-59
2023/01/11 01:17:24;;;;;;;4.53;2.25;;;;;;;;;;5063616;28;20101;-59
2023/01/11 01:19:49;;;;;;;5.40;2.45;;;;;;;;;;5064685;28;20151;-59
2023/01/11 01:22:15;;;;;;;8.52;3.08;;;;;;;;;;5064016;28;20048;-60
2023/01/11 01:24:40;;;;;;;6.78;2.58;;;;;;;;;;5059201;28;20024;-60
2023/01/11 01:27:05;;;;;;;5.68;2.38;;;;;;;;;;5064015;28;20028;-61
2023/01/11 01:29:30;;;;;;;5.15;2.45;;;;;;;;;;5063998;28;20097;-61
2023/01/11 01:31:55;;;;;;;6.72;2.50;;;;;;;;;;5064139;28;20024;-60
2023/01/11 01:34:21;;;;;;;9.55;2.50;;;;;;;;;;5063552;28;20107;-58
2023/01/11 01:36:46;;;;;;;4.75;2.50;;;;;;;;;;5063791;28;20024;-59
2023/01/11 01:39:11;;;;;;;5.05;2.33;;;;;;;;;;5064087;28;20096;-61
2023/01/11 01:41:37;;;;;;;4.82;1.90;;;;;;;;;;5057061;28;20068;-60
2023/01/11 01:44:03;;;;;;;7.20;2.40;;;;;;;;;;5058992;28;20051;-60
2023/01/11 01:46:29;;;;;;;6.90;2.35;;;;;;;;;;5063306;28;20028;-59
2023/01/11 01:48:56;;;;;;;3.63;1.98;;;;;;;;;;5062406;28;20074;-60
2023/01/11 01:51:25;;;;;;;3.63;2.05;;;;;;;;;;5043404;28;20028;-60
2023/01/11 01:53:51;;;;;;;4.43;1.70;;;;;;;;;;5063067;28;20115;-61
2023/01/11 01:56:18;;;;;;;6.47;2.20;;;;;;;;;;5061934;28;20104;-60
2023/01/11 01:58:44;;;;;;;4.97;1.73;;;;;;;;;;5061496;28;20416;-60
2023/01/11 02:03:55;;;;;;;6.07;2.13;;;;;;;;;;5062713;28;20342;-60
2023/01/11 02:06:20;;;;;;;7.22;2.97;;;;;;;;;;5061302;28;20044;-60
2023/01/11 02:08:47;;;;;;;3.20;2.20;;;;;;;;;;5063620;28;20141;-60
2023/01/11 02:11:30;;;;;;;4.38;2.15;;;;;;;;;;5062980;28;20027;-60
2023/01/11 02:14:01;;;;;;;3.78;2.15;;;;;;;;;;5062320;28;20028;-60
2023/01/11 02:16:26;;;;;;;4.63;2.10;;;;;;;;;;5051212;28;20020;-61
2023/01/11 02:18:52;;;;;;;2.50;1.75;;;;;;;;;;5063399;28;20016;-60
2023/01/11 02:21:21;;;;;;;6.25;1.90;;;;;;;;;;5063132;28;20028;-60
2023/01/11 02:24:05;;;;;;;3.22;1.80;;;;;;;;;;5062410;28;20020;-59
2023/01/11 02:26:36;;;;;;;3.20;1.70;;;;;;;;;;5060066;28;20107;-59
2023/01/11 02:29:10;;;;;;;3.13;1.92;;;;;;;;;;5061567;28;20228;-60
2023/01/11 02:31:39;;;;;;;4.82;1.90;;;;;;;;;;5062775;28;20080;-61
2023/01/11 02:34:20;;;;;;;3.97;1.95;;;;;;;;;;5061772;28;20100;-60
2023/01/11 02:36:47;;;;;;;;;;;;;;;;;;5078586;28;20382;-59
2023/01/11 02:39:12;;;;;;;1.98;1.20;;;;;;;;;;5078149;28;19915;-59
2023/01/11 02:47:20;;;;;;;1.83;1.30;;;;;;;;;;5061146;28;20032;-60
2023/01/11 02:49:58;;;;;;;4.05;1.30;;;;;;;;;;5060774;28;20389;-61
2023/01/11 02:52:25;;;;;;;3.00;1.27;;;;;;;;;;5060152;28;20120;-60
2023/01/11 02:54:53;;;;;;;2.25;1.40;;;;;;;;;;5061827;28;20856;-59
2023/01/11 02:57:19;;;;;;;2.67;1.48;;;;;;;;;;5064901;28;20035;-59
2023/01/11 02:59:44;;;;;;;2.92;1.60;;;;;;;;;;5064809;28;20399;-60
2023/01/11 03:02:09;;;;;;;2.53;1.27;;;;;;;;;;5065457;28;20078;-60
2023/01/11 03:04:35;;;;;;;1.90;1.20;;;;;;;;;;5060049;28;20021;-60
2023/01/11 03:07:09;;;;;;;2.38;1.20;;;;;;;;;;5066453;28;20052;-60
2023/01/11 03:09:40;;;;;;;1.63;1.13;;;;;;;;;;5064789;28;20027;-60
2023/01/11 03:15:14;;;;;;;1.38;1.20;;;;;;;;;;5066663;28;20043;-60
2023/01/11 03:17:45;;;;;;;1.70;1.30;;;;;;;;;;5066351;28;20044;-60
2023/01/11 03:20:21;;;;;;;1.13;1.02;;;;;;;;;;5066560;28;20036;-60
2023/01/11 03:23:01;;;;;;;1.35;1.05;;;;;;;;;;5062391;28;20028;-59
2023/01/11 03:25:32;;;;;;;1.10;1.00;;;;;;;;;;5061540;28;20025;-60
2023/01/11 03:28:17;;;;;;;3.05;1.20;;;;;;;;;;5064980;28;20395;-60
2023/01/11 03:30:51;;;;;;;2.92;1.50;;;;;;;;;;5065919;28;20037;-61
2023/01/11 03:33:19;;;;;;;2.70;1.20;;;;;;;;;;5065667;28;20490;-61
2023/01/11 03:35:50;;;;;;;2.42;1.10;;;;;;;;;;5066675;28;20427;-61
2023/01/11 03:38:15;;;;;;;4.72;1.30;;;;;;;;;;5061553;28;20016;-61
2023/01/11 03:40:49;;;;;;;1.10;0.98;;;;;;;;;;5066253;28;20489;-59
2023/01/11 03:43:14;;;;;;;3.30;1.25;;;;;;;;;;5054780;28;20092;-61
2023/01/11 03:45:39;;;;;;;3.30;1.13;;;;;;;;;;5064558;28;20115;-60
2023/01/11 03:48:05;;;;;;;1.13;0.90;;;;;;;;;;5063965;28;20497;-60
2023/01/11 03:50:30;;;;;;;1.38;1.00;;;;;;;;;;5059662;28;20555;-60
2023/01/11 03:52:56;;;;;;;2.95;1.02;;;;;;;;;;5061650;28;20070;-60
2023/01/11 03:55:23;;;;;;;0.98;0.95;;;;;;;;;;5064025;28;20036;-60
2023/01/11 03:57:51;;;;;;;1.17;1.10;;;;;;;;;;5065914;28;20032;-60
2023/01/11 04:00:19;;;;;;;1.33;0.90;;;;;;;;;;5062131;28;20025;-60
2023/01/11 04:02:45;;;;;;;0.95;0.85;;;;;;;;;;5065417;28;20441;-60
2023/01/11 04:05:12;;;;;;;1.35;0.93;;;;;;;;;;5065970;28;20037;-60
2023/01/11 04:07:38;;;;;;;3.17;1.00;;;;;;;;;;5064419;28;20045;-60
2023/01/11 04:10:03;;;;;;;1.80;1.00;;;;;;;;;;5064789;28;20083;-60
2023/01/11 04:12:28;;;;;;;2.47;0.93;;;;;;;;;;5064034;28;20371;-60
2023/01/11 04:14:54;;;;;;;2.40;0.82;;;;;;;;;;5066424;28;20285;-60
2023/01/11 04:17:19;;;;;;;2.28;1.00;;;;;;;;;;5065616;28;20017;-60
2023/01/11 04:19:44;;;;;;;0.77;0.77;;;;;;;;;;5065246;28;20101;-60
2023/01/11 04:22:09;;;;;;;1.42;1.17;;;;;;;;;;5065106;28;20157;-64
2023/01/11 04:24:34;;;;;;;3.13;1.05;;;;;;;;;;5064751;28;20597;-59
2023/01/11 04:27:00;;;;;;;1.38;1.10;;;;;;;;;;5044216;28;20025;-60
2023/01/11 04:29:25;;;;;;;0.75;0.75;;;;;;;;;;5064450;28;20036;-59
2023/01/11 04:31:50;;;;;;;2.35;1.08;;;;;;;;;;5065370;28;20115;-58
2023/01/11 04:34:16;;;;;;;1.30;0.90;;;;;;;;;;5065607;28;20059;-59
2023/01/11 04:36:41;;;;;;;1.60;0.82;;;;;;;;;;5064965;28;20059;-59
2023/01/11 04:39:09;;;;;;;0.82;0.82;;;;;;;;;;5064484;28;20031;-59
2023/01/11 04:44:18;;;;;;;1.42;0.98;;;;;;;;;;5062357;28;20047;-58
2023/01/11 04:46:43;;;;;;;1.30;0.90;;;;;;;;;;5062213;28;20462;-59
2023/01/11 04:49:09;;;;;;;1.77;1.00;;;;;;;;;;5064931;28;20539;-59
2023/01/11 04:51:34;;;;;;;3.63;0.90;;;;;;;;;;5061807;28;20052;-58
2023/01/11 04:54:02;;;;;;;0.70;0.70;;;;;;;;;;5062022;28;20064;-59
2023/01/11 04:56:28;;;;;;;0.77;0.60;;;;;;;;;;5060714;28;20128;-60
2023/01/11 04:58:53;;;;;;;0.93;0.88;;;;;;;;;;5064247;28;20111;-58
2023/01/11 05:01:18;;;;;;;1.45;1.08;;;;;;;;;;5063709;28;20520;-58
2023/01/11 05:03:44;;;;;;;1.83;1.20;;;;;;;;;;5064355;28;20395;-61
2023/01/11 05:06:09;;;;;;;2.25;0.95;;;;;;;;;;5062043;28;20028;-59
2023/01/11 05:08:34;;;;;;;1.02;0.82;;;;;;;;;;5060247;28;20105;-59
2023/01/11 05:11:00;;;;;;;1.75;1.10;;;;;;;;;;5063799;28;20013;-59
2023/01/11 05:13:40;;;;;;;1.15;0.90;;;;;;;;;;5062626;28;20088;-59
2023/01/11 05:16:17;;;;;;;1.55;1.02;;;;;;;;;;5063279;28;20032;-61
2023/01/11 05:18:43;;;;;;;1.00;1.00;;;;;;;;;;5061796;28;20382;-60
2023/01/11 05:21:08;;;;;;;0.88;0.70;;;;;;;;;;5065044;28;20125;-62
2023/01/11 05:23:35;;;;;;;0.93;0.80;;;;;;;;;;5062190;28;20036;-60
2023/01/11 05:26:01;;;;;;;1.58;1.00;;;;;;;;;;5062478;28;20021;-61
2023/01/11 05:28:26;;;;;;;1.45;0.93;;;;;;;;;;5064092;28;20127;-59
2023/01/11 05:30:52;;;;;;;1.60;0.90;;;;;;;;;;5063867;28;20675;-59
2023/01/11 05:33:17;;;;;;;1.40;0.85;;;;;;;;;;5054681;28;20083;-60
2023/01/11 05:35:42;;;;;;;4.00;0.90;;;;;;;;;;5061113;28;20028;-59
2023/01/11 05:38:10;;;;;;;1.50;0.70;;;;;;;;;;5061965;28;20446;-60
2023/01/11 05:40:35;;;;;;;2.53;1.00;;;;;;;;;;5062551;28;20040;-60
2023/01/11 05:43:01;;;;;;;1.58;0.93;;;;;;;;;;5063490;28;20039;-59
2023/01/11 05:45:30;;;;;;;3.00;1.20;;;;;;;;;;5058685;28;20175;-60
2023/01/11 05:47:56;;;;;;;0.95;0.88;;;;;;;;;;5062236;28;20025;-60
2023/01/11 05:50:21;;;;;;;0.88;0.88;;;;;;;;;;5064502;28;20707;-60
2023/01/11 05:52:47;;;;;;;2.28;0.90;;;;;;;;;;5064543;28;20494;-61
2023/01/11 05:55:12;;;;;;;2.55;1.02;;;;;;;;;;5062195;28;20113;-60
2023/01/11 05:57:40;;;;;;;1.40;1.10;;;;;;;;;;5061575;28;20449;-60
2023/01/11 06:00:06;;;;;;;1.55;1.10;;;;;;;;;;5061700;28;20039;-60
2023/01/11 06:02:31;;;;;;;6.57;1.17;;;;;;;;;;5059335;28;20024;-60
2023/01/11 06:04:56;;;;;;;13.13;8.18;;;;;;;;;;5059913;28;20327;-60
2023/01/11 06:07:23;;;;;;;5.55;1.77;;;;;;;;;;5055812;28;20494;-60
2023/01/11 06:09:49;;;;;;;6.63;3.38;;;;;;;;;;5063423;28;20024;-59
2023/01/11 06:12:14;;;;;;;19.38;10.32;;;;;;;;;;5060550;28;20035;-61
2023/01/11 06:14:39;;;;;;;2.75;1.23;;;;;;;;;;5064342;28;20047;-59
2023/01/11 06:17:05;;;;;;;4.18;1.95;;;;;;;;;;5064209;28;20029;-61
2023/01/11 06:19:30;;;;;;;4.38;1.65;;;;;;;;;;5060696;28;20386;-59
2023/01/11 06:21:55;;;;;;;4.10;2.17;;;;;;;;;;5063725;28;20028;-59
2023/01/11 06:24:20;;;;;;;12.15;6.53;;;;;;;;;;5060916;28;20499;-59
2023/01/11 06:26:45;;;;;;;2.47;1.35;;;;;;;;;;5062986;28;20020;-59
2023/01/11 06:29:11;;;;;;;3.75;2.22;;;;;;;;;;5056547;28;20020;-59
2023/01/11 06:31:36;;;;;;;1.95;1.00;;;;;;;;;;5060897;28;20040;-59
2023/01/11 06:34:01;;;;;;;3.08;1.77;;;;;;;;;;5051534;28;20367;-59
2023/01/11 06:36:27;;;;;;;3.97;2.30;;;;;;;;;;5061235;28;20016;-58
2023/01/11 06:38:52;;;;;;;4.28;1.30;;;;;;;;;;5061336;28;20399;-58
2023/01/11 06:41:17;;;;;;;8.52;2.42;;;;;;;;;;5059344;28;20525;-59
2023/01/11 06:43:43;;;;;;;8.18;2.40;;;;;;;;;;5059345;28;20415;-61
2023/01/11 06:46:08;;;;;;;4.45;3.67;;;;;;;;;;5062788;28;20035;-61
2023/01/11 06:48:34;;;;;;;0.68;0.68;;;;;;;;;;5061114;28;20020;-60
2023/01/11 06:50:59;;;;;;;1.20;1.10;;;;;;;;;;5061327;28;20112;-61
2023/01/11 06:53:24;;;;;;;1.08;0.80;;;;;;;;;;5062101;28;20021;-60
2023/01/11 06:55:53;;;;;;;3.22;1.50;;;;;;;;;;5060066;28;20020;-61
2023/01/11 06:58:19;;;;;;;0.90;0.90;;;;;;;;;;5056977;28;20017;-60
2023/01/11 07:00:44;;;;;;;2.95;2.13;;;;;;;;;;5062432;28;20035;-60
2023/01/11 07:03:12;;;;;;;1.10;1.00;;;;;;;;;;5061637;28;20048;-60
2023/01/11 07:05:37;;;;;;;1.98;1.42;;;;;;;;;;5059873;28;20028;-60
2023/01/11 07:08:03;;;;;;;2.83;1.80;;;;;;;;;;5057763;28;20525;-60
2023/01/11 07:10:28;;;;;;;2.13;1.33;;;;;;;;;;5060958;28;20029;-61
2023/01/11 07:12:53;;;;;;;4.13;2.10;;;;;;;;;;5063714;28;20021;-61
2023/01/11 07:15:19;;;;;;;5.53;2.63;;;;;;;;;;5062824;28;20480;-60
2023/01/11 07:17:46;;;;;;;1.88;1.05;;;;;;;;;;5062608;28;20025;-60
2023/01/11 07:20:11;;;;;;;3.92;2.08;;;;;;;;;;5062716;28;20534;-60
2023/01/11 07:22:37;;;;;;;3.92;2.08;;;;;;;;;;5062671;28;20024;-60
2023/01/11 07:25:03;;;;;;;2.00;1.60;;;;;;;;;;5062304;28;20051;-60
2023/01/11 07:27:28;;;;;;;0.80;0.70;;;;;;;;;;5062096;28;20031;-60
2023/01/11 07:29:53;;;;;;;2.15;1.52;;;;;;;;;;5062386;28;20103;-60
2023/01/11 07:32:19;;;;;;;2.47;1.30;;;;;;;;;;5062093;28;20028;-60
2023/01/11 07:34:44;;;;;;;3.05;1.20;;;;;;;;;;5062000;28;20260;-61
2023/01/11 07:37:09;;;;;;;7.97;4.43;;;;;;;;;;5063457;28;20329;-62
2023/01/11 07:39:35;;;;;;;3.90;2.33;;;;;;;;;;5062372;28;20396;-61
2023/01/11 07:44:46;;;;;;;3.83;2.22;;;;;;;;;;5062757;28;20521;-60
2023/01/11 07:47:12;;;;;;;1.65;1.00;;;;;;;;;;5062616;28;20100;-61
2023/01/11 07:49:37;;;;;;;1.70;1.58;;;;;;;;;;5065687;28;20415;-60
2023/01/11 07:52:02;;;;;;;8.15;4.47;;;;;;;;;;5065509;28;20029;-58
2023/01/11 07:54:27;;;;;;;10.10;7.38;;;;;;;;;;5065413;28;20024;-59
2023/01/11 07:56:55;;;;;;;5.40;2.13;;;;;;;;;;5065365;28;20062;-61
2023/01/11 07:59:20;;;;;;;5.88;3.92;;;;;;;;;;5065478;28;20103;-61
2023/01/11 08:01:45;;;;;;;1.52;0.85;;;;;;;;;;5064840;28;20058;-61
2023/01/11 08:04:12;;;;;;;4.65;2.05;;;;;;;;;;5065115;28;20037;-59
2023/01/11 08:06:38;;;;;;;1.55;1.13;;;;;;;;;;5065719;28;20327;-58
2023/01/11 08:09:03;;;;;;;1.88;1.15;;;;;;;;;;5065829;28;20437;-59
2023/01/11 08:16:56;;;;;;;5.65;1.20;;;;;;;;;;5062695;28;20027;-60
2023/01/11 08:19:21;;;;;;;1.20;1.02;;;;;;;;;;5063946;28;20032;-59
2023/01/11 08:21:48;;;;;;;2.25;1.30;;;;;;;;;;5066040;28;20043;-61
2023/01/11 08:24:13;;;;;;;0.95;0.85;;;;;;;;;;5064712;28;20044;-61
2023/01/11 08:26:38;;;;;;;0.98;0.80;;;;;;;;;;5065196;28;20024;-59
2023/01/11 08:29:04;;;;;;;2.13;1.02;;;;;;;;;;5080698;28;20579;-61
2023/01/11 08:31:29;;;;;;;4.50;1.30;;;;;;;;;;5064409;28;20035;-59
2023/01/11 08:33:54;;;;;;;3.33;1.08;;;;;;;;;;5063237;28;20343;-59
2023/01/11 08:36:19;;;;;;;1.77;1.08;;;;;;;;;;5063176;28;20035;-59
2023/01/11 08:38:45;;;;;;;1.38;1.10;;;;;;;;;;5064316;28;20025;-58
2023/01/11 08:41:10;;;;;;;1.33;1.02;;;;;;;;;;5063512;28;20060;-59
2023/01/11 08:43:36;;;;;;;1.73;0.82;;;;;;;;;;5059931;28;20159;-59
2023/01/11 08:46:01;;;;;;;2.47;1.20;;;;;;;;;;5062039;28;20032;-59
2023/01/11 08:48:26;;;;;;;1.20;1.10;;;;;;;;;;5065028;28;20467;-59
2023/01/11 08:50:52;;;;;;;3.25;1.25;;;;;;;;;;5065426;28;20091;-59
2023/01/11 08:53:19;;;;;;;2.75;1.20;;;;;;;;;;5062930;28;20378;-61
2023/01/11 08:55:46;;;;;;;2.08;1.10;;;;;;;;;;5064897;28;20435;-61
2023/01/11 08:58:11;;;;;;;2.63;1.30;;;;;;;;;;5065433;28;20027;-60
2023/01/11 09:00:36;;;;;;;2.33;1.23;;;;;;;;;;5064857;28;20032;-60
2023/01/11 09:03:02;;;;;;;1.05;0.93;;;;;;;;;;5065164;28;20032;-61
2023/01/11 09:05:27;;;;;;;2.33;1.30;;;;;;;;;;5064838;28;20502;-60
2023/01/11 09:07:53;;;;;;;2.38;1.40;;;;;;;;;;5064529;28;20406;-61
2023/01/11 09:10:18;;;;;;;2.15;1.15;;;;;;;;;;5063402;28;20475;-60
2023/01/11 09:12:43;;;;;;;3.20;1.40;;;;;;;;;;5065069;28;20020;-60
2023/01/11 09:15:09;;;;;;;1.60;1.13;;;;;;;;;;5065087;28;20034;-60
2023/01/11 09:17:34;;;;;;;1.63;1.10;;;;;;;;;;5064778;28;20357;-60
2023/01/11 09:19:59;;;;;;;1.98;1.23;;;;;;;;;;5063844;28;20569;-61
2023/01/11 09:22:26;;;;;;;2.15;1.10;;;;;;;;;;5064330;28;20417;-61
2023/01/11 09:24:51;;;;;;;1.10;1.00;;;;;;;;;;5064455;28;20020;-59
2023/01/11 09:27:17;;;;;;;2.60;0.90;;;;;;;;;;5063744;28;20378;-60
2023/01/11 09:29:43;;;;;;;1.65;1.10;;;;;;;;;;5056792;28;20020;-60
2023/01/11 09:32:08;;;;;;;2.60;1.13;;;;;;;;;;5060198;28;20383;-60
2023/01/11 09:34:33;;;;;;;2.47;1.02;;;;;;;;;;5061182;28;20493;-60
2023/01/11 09:37:01;;;;;;;0.75;0.70;;;;;;;;;;5062175;28;20020;-61
2023/01/11 09:39:27;;;;;;;1.58;1.30;;;;;;;;;;5062075;28;20524;-60
2023/01/11 09:41:59;;;;;;;1.30;0.77;;;;;;;;;;5057968;28;20387;-60
2023/01/11 09:44:26;;;;;;;1.10;1.00;;;;;;;;;;5060383;28;20024;-60
2023/01/11 09:46:54;;;;;;;1.23;1.08;;;;;;;;;;5057780;28;20119;-60
2023/01/11 09:49:22;;;;;;;0.80;0.80;;;;;;;;;;5061579;28;20095;-60
2023/01/11 09:51:48;;;;;;;1.80;0.80;;;;;;;;;;5060332;28;20020;-61
2023/01/11 09:54:24;;;;;;;3.25;0.70;;;;;;;;;;5058468;28;20032;-60
2023/01/11 09:56:52;;;;;;;0.93;0.80;;;;;;;;;;5061652;28;20043;-60
2023/01/11 09:59:31;;;;;;;4.30;1.13;;;;;;;;;;5059768;28;20024;-60
2023/01/11 10:02:10;;;;;;;1.80;0.80;;;;;;;;;;5058898;28;20497;-60
2023/01/11 10:04:40;;;;;;;1.77;1.00;;;;;;;;;;5056592;28;20043;-60
2023/01/11 10:07:13;;;;;;;0.93;0.77;;;;;;;;;;5059782;28;20045;-60
2023/01/11 10:09:38;;;;;;;0.70;0.70;;;;;;;;;;5057322;28;20518;-59
2023/01/11 10:12:07;;;;;;;1.25;1.00;;;;;;;;;;5061097;28;20035;-60
2023/01/11 10:14:34;;;;;;;0.90;0.90;;;;;;;;;;5056587;28;20073;-60
2023/01/11 10:17:00;;;;;;;1.10;1.00;;;;;;;;;;5061078;28;20040;-60
2023/01/11 10:19:31;;;;;;;3.03;1.20;;;;;;;;;;5060699;28;20526;-60
2023/01/11 10:22:02;;;;;;;2.78;1.27;;;;;;;;;;5059704;28;20047;-60
2023/01/11 10:24:28;;;;;;;3.63;1.30;;;;;;;;;;5059903;28;20364;-60
2023/01/11 10:26:55;;;;;;;2.58;0.82;;;;;;;;;;5060185;28;20031;-60
2023/01/11 10:29:41;;;;;;;4.32;1.40;;;;;;;;;;5058679;28;20024;-59
2023/01/11 10:32:31;;;;;;;4.15;1.23;;;;;;;;;;5060270;28;20039;-60
2023/01/11 10:35:12;;;;;;;4.40;2.35;;;;;;;;;;5058814;28;20585;-60
2023/01/11 10:38:04;;;;;;;4.00;1.75;;;;;;;;;;5060856;28;20052;-60
2023/01/11 10:41:03;;;;;;;2.45;1.48;;;;;;;;;;5059895;28;20036;-60
2023/01/11 10:43:30;;;;;;;5.07;1.80;;;;;;;;;;5052245;28;20100;-60
2023/01/11 10:45:56;;;;;;;1.83;1.30;;;;;;;;;;5060617;28;20599;-60
2023/01/11 10:48:24;;;;;;;2.80;1.23;;;;;;;;;;5058694;28;20439;-59
2023/01/11 10:50:50;;;;;;;1.88;1.40;;;;;;;;;;5061379;28;20491;-60
2023/01/11 10:53:20;;;;;;;5.32;2.65;;;;;;;;;;5059132;28;20020;-59
2023/01/11 10:55:49;;;;;;;6.38;2.65;;;;;;;;;;5061230;28;20373;-59
2023/01/11 10:58:34;;;;;;;3.20;1.90;;;;;;;;;;5060754;28;20674;-59
2023/01/11 11:01:07;;;;;;;4.55;1.20;;;;;;;;;;5060951;28;20043;-59
2023/01/11 11:03:51;;;;;;;2.88;1.88;;;;;;;;;;5060780;28;20046;-59
2023/01/11 11:06:20;;;;;;;1.67;1.30;;;;;;;;;;5057604;28;20116;-60
2023/01/11 11:08:57;;;;;;;2.70;1.55;;;;;;;;;;5061168;28;20032;-60
2023/01/11 11:11:28;;;;;;;6.40;4.30;;;;;;;;;;5060600;28;20031;-59
2023/01/11 11:13:55;;;;;;;3.58;2.15;;;;;;;;;;5061285;28;20042;-59
2023/01/11 11:16:20;;;;;;;3.72;1.77;;;;;;;;;;5061887;28;20079;-60
2023/01/11 11:18:46;;;;;;;7.07;3.40;;;;;;;;;;5064472;28;20119;-60
2023/01/11 11:21:21;;;;;;;13.70;6.45;;;;;;;;;;5058600;28;20040;-60
2023/01/11 11:23:46;;;;;;;45.22;27.27;;;;;;;;;;5055361;28;20886;-59
2023/01/11 11:26:11;;;;;;;61.22;40.15;;;;;;;;;;5061934;28;20106;-60
2023/01/11 11:28:37;;;;;;;11.38;8.95;;;;;;;;;;5063426;28;20054;-60
2023/01/11 11:31:03;;;;;;;16.92;9.95;;;;;;;;;;5063193;28;20033;-60
2023/01/11 11:33:31;;;;;;;20.17;14.00;;;;;;;;;;5063208;28;20051;-59
2023/01/11 11:35:57;;;;;;;14.00;9.73;;;;;;;;;;5062118;28;20114;-59
2023/01/11 11:38:28;;;;;;;20.63;14.43;;;;;;;;;;5062628;28;20055;-60
2023/01/11 11:41:03;;;;;;;8.45;3.88;;;;;;;;;;5060235;28;20036;-60
2023/01/11 11:43:28;;;;;;;20.67;10.35;;;;;;;;;;5059236;28;20017;-59
2023/01/11 11:45:54;;;;;;;25.67;13.98;;;;;;;;;;5064099;28;20042;-60
2023/01/11 11:48:20;;;;;;;8.32;2.90;;;;;;;;;;5070627;28;20664;-59
2023/01/11 11:50:46;;;;;;;11.23;7.43;;;;;;;;;;5062670;28;20035;-59
2023/01/11 11:53:16;;;;;;;7.03;3.05;;;;;;;;;;5064242;28;20044;-59
2023/01/11 11:55:41;;;;;;;11.98;4.68;;;;;;;;;;5064201;28;20111;-59
2023/01/11 11:58:09;;;;;;;10.93;6.00;;;;;;;;;;5064306;28;20049;-60
2023/01/11 12:00:39;;;;;;;10.30;3.72;;;;;;;;;;5061635;28;20047;-59
2023/01/11 12:03:25;;;;;;;9.48;5.88;;;;;;;;;;5063605;28;20116;-59
2023/01/11 12:05:51;;;;;;;26.85;9.73;;;;;;;;;;5063455;28;20323;-59
2023/01/11 12:08:16;;;;;;;9.15;4.18;;;;;;;;;;5057819;28;20048;-59
2023/01/11 12:10:46;;;;;;;22.58;5.43;;;;;;;;;;5062090;28;20359;-59
2023/01/11 12:13:23;;;;;;;11.63;3.80;;;;;;;;;;5064503;28;20924;-59
2023/01/11 12:15:54;;;;;;;9.88;2.35;;;;;;;;;;5064184;28;20794;-59
2023/01/11 12:18:32;;;;;;;24.90;12.98;;;;;;;;;;5062099;28;20035;-59
2023/01/11 12:21:07;;;;;;;15.68;6.55;;;;;;;;;;5063911;28;20055;-59
2023/01/11 12:23:32;;;;;;;23.23;8.18;;;;;;;;;;5062578;28;20032;-59
2023/01/11 12:26:09;;;;;;;23.92;7.20;;;;;;;;;;5063944;28;20036;-59
2023/01/11 12:28:35;;;;;;;59.38;27.40;;;;;;;;;;5057774;28;20435;-59
2023/01/11 12:31:19;;;;;;;46.60;24.77;;;;;;;;;;5064554;28;20035;-59
2023/01/11 12:34:03;;;;;;;93.38;50.55;;;;;;;;;;5062726;28;20093;-59
2023/01/11 12:36:31;;;;;;;33.50;18.30;;;;;;;;;;5064921;28;20020;-59
2023/01/11 12:39:26;;;;;;;21.02;7.20;;;;;;;;;;5065408;28;20054;-59
2023/01/11 12:41:56;;;;;;;45.65;26.02;;;;;;;;;;5054105;28;20749;-59
2023/01/11 12:44:40;;;;;;;23.33;10.82;;;;;;;;;;5061530;28;20078;-59
2023/01/11 12:47:05;;;;;;;39.60;21.63;;;;;;;;;;5065115;28;20051;-59
2023/01/11 12:49:36;;;;;;;23.50;14.02;;;;;;;;;;5065348;28;20458;-59
2023/01/11 12:52:21;;;;;;;39.88;23.80;;;;;;;;;;5065890;28;20044;-59
2023/01/11 12:54:53;;;;;;;66.15;25.83;;;;;;;;;;5063619;28;20582;-59
2023/01/11 12:57:37;;;;;;;29.13;13.30;;;;;;;;;;5063196;28;20459;-59
2023/01/11 13:00:18;;;;;;;35.42;12.73;;;;;;;;;;5065387;28;20036;-59
2023/01/11 13:02:44;;;;;;;27.52;11.63;;;;;;;;;;5062041;28;20460;-59
2023/01/11 13:05:12;;;;;;;31.60;11.40;;;;;;;;;;5064373;28;20652;-59
2023/01/11 13:07:42;;;;;;;33.15;11.73;;;;;;;;;;5064997;28;20080;-59
2023/01/11 13:10:16;;;;;;;32.80;10.18;;;;;;;;;;5054419;28;20036;-59
2023/01/11 13:12:47;;;;;;;23.65;5.25;;;;;;;;;;5060888;28;20125;-59
2023/01/11 13:15:18;;;;;;;25.55;5.57;;;;;;;;;;5063202;28;20864;-59
2023/01/11 13:17:46;;;;;;;20.75;6.97;;;;;;;;;;5060570;28;20044;-59
2023/01/11 13:20:23;;;;;;;23.85;7.18;;;;;;;;;;5063510;28;20024;-59
2023/01/11 13:22:49;;;;;;;32.67;6.25;;;;;;;;;;5061766;28;20340;-59
2023/01/11 13:25:20;;;;;;;23.50;5.93;;;;;;;;;;5058489;28;20031;-59
2023/01/11 13:27:45;;;;;;;;;;;;;;;;;;5062063;28;20078;-59
2023/01/11 13:30:11;;;;;;;18.85;4.45;;;;;;;;;;5064582;28;19916;-59
2023/01/11 13:32:36;;;;;;;21.20;4.60;;;;;;;;;;5061584;28;20261;-59
2023/01/11 13:35:01;;;;;;;27.60;4.25;;;;;;;;;;5062629;28;20064;-59
2023/01/11 13:37:28;;;;;;;257.48;60.25;;;;;;;;;;5064279;28;20400;-59
2023/01/11 13:39:56;;;;;;;30.10;14.27;;;;;;;;;;5063181;28;20036;-59
2023/01/11 13:42:22;;;;;;;74.32;33.08;;;;;;;;;;5056780;28;20736;-59
2023/01/11 13:45:20;;;;;;;91.00;40.70;;;;;;;;;;5059372;28;20024;-59
2023/01/11 13:47:52;;;;;;;88.65;30.10;;;;;;;;;;5045750;28;20029;-59
2023/01/11 13:50:26;;;;;;;36.60;12.85;;;;;;;;;;5061523;28;20020;-59
2023/01/11 13:52:58;;;;;;;60.15;24.75;;;;;;;;;;5062807;28;20033;-59
2023/01/11 13:55:26;;;;;;;22.02;6.13;;;;;;;;;;5079085;28;20028;-59
2023/01/11 13:57:58;;;;;;;35.95;11.48;;;;;;;;;;5064427;28;20129;-59
2023/01/11 14:00:29;;;;;;;45.75;16.30;;;;;;;;;;5064176;28;20044;-59
2023/01/11 14:03:00;;;;;;;83.72;31.15;;;;;;;;;;5062597;28;20106;-58
2023/01/11 14:05:27;;;;;;;159.07;50.63;;;;;;;;;;5059710;28;20504;-59
2023/01/11 14:07:59;;;;;;;62.22;19.02;;;;;;;;;;5062654;28;20048;-59
2023/01/11 14:10:30;;;;;;;23.10;8.35;;;;;;;;;;5063264;28;20020;-59
2023/01/11 14:14:11;;;;;;;22.45;7.95;;;;;;;;;;5053718;28;20028;-59
2023/01/11 14:16:00;;;;;;;30.63;11.05;;;;;;;;;;5063726;28;20040;-59
2023/01/11 14:18:28;;;;;;;32.03;12.50;;;;;;;;;;5063622;28;20157;-59
2023/01/11 14:20:54;;;;;;;18.83;7.50;;;;;;;;;;5060866;28;20390;-59
2023/01/11 14:23:19;;;;;;;38.03;14.40;;;;;;;;;;5063509;28;20023;-59
2023/01/11 14:26:00;;;;;;;24.98;5.93;;;;;;;;;;5063060;28;20565;-59
2023/01/11 14:28:37;;;;;;;27.17;8.65;;;;;;;;;;5063149;28;20443;-58
2023/01/11 14:31:03;;;;;;;37.88;8.18;;;;;;;;;;5058790;28;20039;-58
2023/01/11 14:33:32;;;;;;;36.55;8.68;;;;;;;;;;5063407;28;20021;-59
2023/01/11 14:35:57;;;;;;;28.87;7.93;;;;;;;;;;5055577;28;20028;-59
2023/01/11 14:38:39;;;;;;;23.13;5.97;;;;;;;;;;5057356;28;20262;-59
2023/01/11 14:41:18;;;;;;;31.27;7.00;;;;;;;;;;5057714;28;20044;-60
2023/01/11 14:43:57;;;;;;;16.65;6.35;;;;;;;;;;5076244;28;20031;-60
2023/01/11 14:46:22;;;;;;;30.20;4.05;;;;;;;;;;5063071;28;20021;-58
2023/01/11 14:48:54;;;;;;;20.95;3.95;;;;;;;;;;5063165;28;20620;-58
2023/01/11 14:51:21;;;;;;;26.05;4.65;;;;;;;;;;5061473;28;20023;-59
2023/01/11 14:54:06;;;;;;;165.38;49.85;;;;;;;;;;5066395;28;20137;-59
2023/01/11 14:56:41;;;;;;;312.77;192.20;;;;;;;;;;5063082;28;20553;-59
2023/01/11 14:59:20;;;;;;;257.73;145.68;;;;;;;;;;5066428;28;20040;-59
2023/01/11 15:02:04;;;;;;;178.77;90.53;;;;;;;;;;5062059;28;20592;-59
2023/01/11 15:04:35;;;;;;;78.40;51.80;;;;;;;;;;5064634;28;20141;-59
2023/01/11 15:07:01;;;;;;;28.80;8.85;;;;;;;;;;5067264;28;20609;-59
2023/01/11 15:09:56;;;;;;;36.28;12.90;;;;;;;;;;5066899;28;20095;-60
2023/01/11 15:12:22;;;;;;;52.72;18.63;;;;;;;;;;5065719;28;20036;-58
2023/01/11 15:14:48;;;;;;;77.38;23.02;;;;;;;;;;5066646;28;20073;-59